createdAt,value
2023-02-24T00:02:06.328Z,47.61
2023-02-24T00:04:39.916Z,47.38
2023-02-24T00:07:12.940Z,47.83
2023-02-24T00:09:41.688Z,47.15
2023-02-24T00:12:13.421Z,47.37
2023-02-24T00:14:45.339Z,47.58
2023-02-24T00:17:17.182Z,47.98
2023-02-24T00:19:46.766Z,47.83
2023-02-24T00:22:15.229Z,47.22
2023-02-24T00:24:46.487Z,48.29
2023-02-24T00:27:14.903Z,47.60
2023-02-24T00:29:46.143Z,47.67
2023-02-24T00:32:15.059Z,48.03
2023-02-24T00:34:44.148Z,47.68
2023-02-24T00:37:12.826Z,48.03
2023-02-24T00:39:42.175Z,48.17
2023-02-24T00:42:12.366Z,47.47
2023-02-24T00:44:45.092Z,47.55
2023-02-24T00:47:14.000Z,47.42
2023-02-24T00:49:43.348Z,47.27
2023-02-24T00:52:19.577Z,47.46
2023-02-24T00:54:49.563Z,47.08
2023-02-24T00:57:20.594Z,47.25
2023-02-24T00:59:51.659Z,47.65
2023-02-24T01:02:20.750Z,47.93
2023-02-24T01:04:51.214Z,47.90
2023-02-24T01:07:19.803Z,47.98
2023-02-24T01:09:50.726Z,47.99
2023-02-24T01:12:22.293Z,47.73
2023-02-24T01:14:53.044Z,47.68
2023-02-24T01:17:22.368Z,47.51
2023-02-24T01:19:52.205Z,47.76
2023-02-24T01:22:21.026Z,47.69
2023-02-24T01:24:50.021Z,47.62
2023-02-24T01:27:19.563Z,47.48
2023-02-24T01:29:48.673Z,47.72
2023-02-24T01:32:21.352Z,47.33
2023-02-24T01:34:53.687Z,48.10
2023-02-24T01:37:22.304Z,47.04
2023-02-24T01:39:51.219Z,47.49
2023-02-24T01:42:21.486Z,47.49
2023-02-24T01:44:52.355Z,47.58
2023-02-24T01:47:21.470Z,47.38
2023-02-24T01:49:53.117Z,47.39
2023-02-24T01:52:27.157Z,47.28
2023-02-24T01:55:16.904Z,47.27
2023-02-24T01:57:46.413Z,47.06
2023-02-24T02:00:38.162Z,46.99
2023-02-24T02:03:35.356Z,46.90
2023-02-24T02:06:11.852Z,47.05
2023-02-24T02:08:42.598Z,47.09
2023-02-24T02:11:20.868Z,46.94
2023-02-24T02:13:50.649Z,46.67
2023-02-24T02:16:37.566Z,46.77
2023-02-24T02:19:24.638Z,46.71
2023-02-24T02:22:08.411Z,46.81
2023-02-24T02:24:48.678Z,46.58
2023-02-24T02:27:58.939Z,47.03
2023-02-24T02:30:36.600Z,46.83
2023-02-24T02:33:40.557Z,46.90
2023-02-24T02:36:24.338Z,46.52
2023-02-24T02:39:15.791Z,46.71
2023-02-24T02:42:05.729Z,46.52
2023-02-24T02:45:27.974Z,46.38
2023-02-24T02:48:15.970Z,46.47
2023-02-24T02:50:47.488Z,45.92
2023-02-24T02:53:29.095Z,46.29
2023-02-24T02:56:02.197Z,46.53
2023-02-24T02:58:33.996Z,46.08
2023-02-24T03:01:03.058Z,45.93
2023-02-24T03:03:41.622Z,46.08
2023-02-24T03:06:16.644Z,46.13
2023-02-24T03:08:59.721Z,46.14
2023-02-24T03:11:32.724Z,46.01
2023-02-24T03:14:03.040Z,46.05
2023-02-24T03:16:32.869Z,46.67
2023-02-24T03:19:05.231Z,46.03
2023-02-24T03:21:45.763Z,46.05
2023-02-24T03:24:15.881Z,46.05
2023-02-24T03:27:20.168Z,46.12
2023-02-24T03:30:18.813Z,46.18
2023-02-24T03:33:05.825Z,45.99
2023-02-24T03:35:42.218Z,46.17
2023-02-24T03:38:11.668Z,45.92
2023-02-24T03:40:43.688Z,46.05
2023-02-24T03:43:26.245Z,46.28
2023-02-24T03:45:56.736Z,46.27
2023-02-24T03:48:27.394Z,46.31
2023-02-24T03:50:56.890Z,46.15
2023-02-24T03:54:02.583Z,46.10
2023-02-24T03:56:59.074Z,46.22
2023-02-24T03:59:35.982Z,45.98
2023-02-24T04:02:10.431Z,46.21
2023-02-24T04:05:10.200Z,45.94
2023-02-24T04:08:04.731Z,46.04
2023-02-24T04:10:57.704Z,46.05
2023-02-24T04:13:49.777Z,46.03
2023-02-24T04:16:40.337Z,46.03
2023-02-24T04:19:14.403Z,46.16
2023-02-24T04:21:45.007Z,45.99
2023-02-24T04:24:21.584Z,46.15
2023-02-24T04:26:51.585Z,46.21
2023-02-24T04:29:23.284Z,46.05
2023-02-24T04:31:58.214Z,46.00
2023-02-24T04:34:32.510Z,46.17
2023-02-24T04:37:02.649Z,46.23
2023-02-24T04:39:31.985Z,46.06
2023-02-24T04:42:02.704Z,46.57
2023-02-24T04:44:32.909Z,46.02
2023-02-24T04:47:01.668Z,45.99
2023-02-24T04:49:30.060Z,46.06
2023-02-24T04:51:58.847Z,45.69
2023-02-24T04:54:29.898Z,45.39
2023-02-24T04:56:59.681Z,45.04
2023-02-24T04:59:28.398Z,44.97
2023-02-24T05:02:01.774Z,44.25
2023-02-24T05:04:31.785Z,44.40
2023-02-24T05:07:00.756Z,44.21
2023-02-24T05:09:30.619Z,44.25
2023-02-24T05:12:00.511Z,43.95
2023-02-24T05:14:31.001Z,43.99
2023-02-24T05:17:00.710Z,43.83
2023-02-24T05:19:47.720Z,43.98
2023-02-24T05:22:17.905Z,44.08
2023-02-24T05:24:48.309Z,43.87
2023-02-24T05:27:17.703Z,43.90
2023-02-24T05:29:46.375Z,43.97
2023-02-24T05:32:17.026Z,43.94
2023-02-24T05:34:45.641Z,44.07
2023-02-24T05:37:16.920Z,43.93
2023-02-24T05:39:45.506Z,43.99
2023-02-24T05:42:14.681Z,44.09
2023-02-24T05:44:43.189Z,44.18
2023-02-24T05:47:12.065Z,43.99
2023-02-24T05:49:44.014Z,44.00
2023-02-24T05:52:14.465Z,44.14
2023-02-24T05:54:44.225Z,44.12
2023-02-24T05:57:25.100Z,44.21
2023-02-24T05:59:56.080Z,44.10
2023-02-24T06:02:28.135Z,44.44
2023-02-24T06:04:57.281Z,44.31
2023-02-24T06:07:34.399Z,44.36
2023-02-24T06:10:05.286Z,44.39
2023-02-24T06:12:35.474Z,44.41
2023-02-24T06:15:08.140Z,44.40
2023-02-24T06:17:37.081Z,44.49
2023-02-24T06:20:14.139Z,44.52
2023-02-24T06:22:42.926Z,44.88
2023-02-24T06:25:14.314Z,44.72
2023-02-24T06:27:43.304Z,44.97
2023-02-24T06:30:12.880Z,44.85
2023-02-24T06:32:41.962Z,45.11
2023-02-24T06:35:12.852Z,45.07
2023-02-24T06:37:41.667Z,45.13
2023-02-24T06:40:16.047Z,44.97
2023-02-24T06:42:55.398Z,44.95
2023-02-24T06:45:24.488Z,44.93
2023-02-24T06:47:53.382Z,44.92
2023-02-24T06:50:23.539Z,45.00
2023-02-24T06:52:58.656Z,45.01
2023-02-24T06:55:30.172Z,45.24
2023-02-24T06:58:04.728Z,45.11
2023-02-24T07:00:40.811Z,45.45
2023-02-24T07:03:16.173Z,45.19
2023-02-24T07:06:11.383Z,45.67
2023-02-24T07:08:41.536Z,45.56
2023-02-24T07:11:10.110Z,45.52
2023-02-24T07:13:39.022Z,45.60
2023-02-24T07:16:07.931Z,45.72
2023-02-24T07:18:40.848Z,45.74
2023-02-24T07:21:16.720Z,45.80
2023-02-24T07:23:46.281Z,46.01
2023-02-24T07:26:19.558Z,45.97
2023-02-24T07:28:49.325Z,45.94
2023-02-24T07:31:21.471Z,46.26
2023-02-24T07:33:56.033Z,46.24
2023-02-24T07:36:24.662Z,46.73
2023-02-24T07:38:54.507Z,46.66
2023-02-24T07:41:23.850Z,46.45
2023-02-24T07:43:54.751Z,46.66
2023-02-24T07:46:28.434Z,47.09
2023-02-24T07:49:00.491Z,47.11
2023-02-24T07:51:30.126Z,46.76
2023-02-24T07:54:00.730Z,47.02
2023-02-24T07:56:31.257Z,47.45
2023-02-24T07:59:02.991Z,47.19
2023-02-24T08:01:39.231Z,47.47
2023-02-24T08:04:16.084Z,47.58
2023-02-24T08:06:47.819Z,47.50
2023-02-24T08:09:20.753Z,47.48
2023-02-24T08:11:54.973Z,47.44
2023-02-24T08:14:34.983Z,47.51
2023-02-24T08:17:05.637Z,47.51
2023-02-24T08:19:39.854Z,47.59
2023-02-24T08:22:21.089Z,47.81
2023-02-24T08:25:06.388Z,47.63
2023-02-24T08:27:40.658Z,48.00
2023-02-24T08:30:21.766Z,47.50
2023-02-24T08:32:58.808Z,48.32
2023-02-24T08:35:35.522Z,48.20
2023-02-24T08:38:14.825Z,48.31
2023-02-24T08:40:51.561Z,48.35
2023-02-24T08:43:33.323Z,48.62
2023-02-24T08:46:18.705Z,48.08
2023-02-24T08:48:57.019Z,47.93
2023-02-24T08:51:37.685Z,48.09
2023-02-24T08:54:11.678Z,48.09
2023-02-24T08:56:44.108Z,48.49
2023-02-24T08:59:32.502Z,48.74
2023-02-24T09:02:24.478Z,48.10
2023-02-24T09:05:05.370Z,48.27
2023-02-24T09:07:40.919Z,48.23
2023-02-24T09:10:18.149Z,47.83
2023-02-24T09:12:49.482Z,48.69
2023-02-24T09:15:18.309Z,48.45
2023-02-24T09:17:47.248Z,48.31
2023-02-24T09:20:42.061Z,48.79
2023-02-24T09:23:20.517Z,48.12
2023-02-24T09:25:54.736Z,48.21
2023-02-24T09:28:26.323Z,48.39
2023-02-24T09:30:57.742Z,48.44
2023-02-24T09:33:42.452Z,48.40
2023-02-24T09:36:28.350Z,48.10
2023-02-24T09:38:59.703Z,48.56
2023-02-24T09:41:56.927Z,48.70
2023-02-24T09:44:33.677Z,48.61
2023-02-24T09:47:10.094Z,48.08
2023-02-24T09:49:49.895Z,48.55
2023-02-24T09:52:18.914Z,48.30
2023-02-24T09:55:10.190Z,48.26
2023-02-24T09:58:17.370Z,48.67
2023-02-24T10:01:21.560Z,48.69
2023-02-24T10:04:20.865Z,48.62
2023-02-24T10:06:55.664Z,48.57
2023-02-24T10:09:41.889Z,48.43
2023-02-24T10:12:22.164Z,48.57
2023-02-24T10:15:32.462Z,48.30
2023-02-24T10:18:33.148Z,48.08
2023-02-24T10:21:04.592Z,47.85
2023-02-24T10:23:56.857Z,48.15
2023-02-24T10:27:07.530Z,48.16
2023-02-24T10:30:11.506Z,48.23
2023-02-24T10:32:59.238Z,48.03
2023-02-24T10:35:33.972Z,48.04
2023-02-24T10:38:05.662Z,48.30
2023-02-24T10:40:47.283Z,47.89
2023-02-24T10:43:30.317Z,47.81
2023-02-24T10:46:07.391Z,47.98
2023-02-24T10:48:42.578Z,47.87
2023-02-24T10:51:32.115Z,47.83
2023-02-24T10:54:55.404Z,47.47
2023-02-24T10:57:42.613Z,47.19
2023-02-24T11:00:33.045Z,47.04
2023-02-24T11:03:10.485Z,46.62
2023-02-24T11:05:56.855Z,46.47
2023-02-24T11:08:44.420Z,46.09
2023-02-24T11:11:30.039Z,45.78
2023-02-24T11:14:21.365Z,45.92
2023-02-24T11:17:13.127Z,45.82
2023-02-24T11:19:56.015Z,45.57
2023-02-24T11:22:34.435Z,45.81
2023-02-24T11:25:36.376Z,45.94
2023-02-24T11:28:05.811Z,45.98
2023-02-24T11:31:06.383Z,46.04
2023-02-24T11:33:52.273Z,46.24
2023-02-24T11:36:48.270Z,46.32
2023-02-24T11:39:59.593Z,46.48
2023-02-24T11:42:38.204Z,46.24
2023-02-24T11:45:41.178Z,46.35
2023-02-24T11:48:23.122Z,48.87
2023-02-24T11:51:19.990Z,50.38
2023-02-24T11:54:05.000Z,50.48
2023-02-24T11:56:55.121Z,51.34
2023-02-24T11:59:41.049Z,53.68
2023-02-24T12:02:34.197Z,54.27
2023-02-24T12:05:17.193Z,53.53
2023-02-24T12:08:14.373Z,53.30
2023-02-24T12:10:52.733Z,53.66
2023-02-24T12:13:57.972Z,54.05
2023-02-24T12:16:33.743Z,54.33
2023-02-24T12:19:20.137Z,54.33
2023-02-24T12:21:56.504Z,53.64
2023-02-24T12:24:25.005Z,52.93
2023-02-24T12:27:21.216Z,52.60
2023-02-24T12:30:38.816Z,53.25
2023-02-24T12:33:54.120Z,52.87
2023-02-24T12:36:52.906Z,51.58
2023-02-24T12:39:48.363Z,50.18
2023-02-24T12:42:37.648Z,49.71
2023-02-24T12:45:22.093Z,49.86
2023-02-24T12:47:59.790Z,50.79
2023-02-24T12:50:44.186Z,51.83
2023-02-24T12:53:42.601Z,52.72
2023-02-24T12:56:29.120Z,53.49
2023-02-24T12:59:01.089Z,53.44
2023-02-24T13:01:41.334Z,53.27
2023-02-24T13:04:55.317Z,53.07
2023-02-24T13:07:39.671Z,52.27
2023-02-24T13:10:45.459Z,52.27
2023-02-24T13:13:46.786Z,51.80
2023-02-24T13:16:15.459Z,51.77
2023-02-24T13:18:45.606Z,51.49
2023-02-24T13:21:23.566Z,51.59
2023-02-24T13:24:03.411Z,51.32
2023-02-24T13:26:32.568Z,51.38
2023-02-24T13:29:10.926Z,51.10
2023-02-24T13:31:52.918Z,51.10
2023-02-24T13:34:45.107Z,51.11
2023-02-24T13:37:14.050Z,50.90
2023-02-24T13:39:44.661Z,50.80
2023-02-24T13:42:28.677Z,50.57
2023-02-24T13:45:05.137Z,50.82
2023-02-24T13:48:17.939Z,50.81
2023-02-24T13:51:24.635Z,50.43
2023-02-24T13:54:23.549Z,50.59
2023-02-24T13:57:24.961Z,50.40
2023-02-24T14:00:22.432Z,50.32
2023-02-24T14:02:53.309Z,50.54
2023-02-24T14:05:27.477Z,50.22
2023-02-24T14:07:56.416Z,50.30
2023-02-24T14:10:33.520Z,50.17
2023-02-24T14:13:14.163Z,50.01
2023-02-24T14:15:45.006Z,49.78
2023-02-24T14:18:31.005Z,50.07
2023-02-24T14:20:59.804Z,49.99
2023-02-24T14:23:34.673Z,50.36
2023-02-24T14:26:07.036Z,50.31
2023-02-24T14:28:37.979Z,50.18
2023-02-24T14:31:16.545Z,50.56
2023-02-24T14:33:46.177Z,50.56
2023-02-24T14:36:26.655Z,50.30
2023-02-24T14:39:20.194Z,50.63
2023-02-24T14:41:49.453Z,50.60
2023-02-24T14:44:28.625Z,50.55
2023-02-24T14:46:59.785Z,50.51
2023-02-24T14:49:32.912Z,50.64
2023-02-24T14:52:14.482Z,50.56
2023-02-24T14:55:01.714Z,50.25
2023-02-24T14:57:36.216Z,50.63
2023-02-24T15:00:24.444Z,50.49
2023-02-24T15:03:36.677Z,50.37
2023-02-24T15:06:08.280Z,50.42
2023-02-24T15:08:44.990Z,50.35
2023-02-24T15:11:16.767Z,50.46
2023-02-24T15:13:54.414Z,50.19
2023-02-24T15:16:26.286Z,50.49
2023-02-24T15:19:00.619Z,50.26
2023-02-24T15:21:35.983Z,50.31
2023-02-24T15:24:19.102Z,50.25
2023-02-24T15:27:14.285Z,50.06
2023-02-24T15:29:44.167Z,50.23
2023-02-24T15:32:19.854Z,50.36
2023-02-24T15:34:48.416Z,50.00
2023-02-24T15:37:25.691Z,50.28
2023-02-24T15:40:05.638Z,50.09
2023-02-24T15:42:35.504Z,50.14
2023-02-24T15:45:06.330Z,50.35
2023-02-24T15:47:44.296Z,50.20
2023-02-24T15:50:13.257Z,50.14
2023-02-24T15:52:42.129Z,50.20
2023-02-24T15:55:14.777Z,50.19
2023-02-24T15:57:43.645Z,49.90
2023-02-24T16:00:17.336Z,50.08
2023-02-24T16:02:46.247Z,50.11
2023-02-24T16:05:15.209Z,49.97
2023-02-24T16:08:14.325Z,50.04
2023-02-24T16:10:42.679Z,49.68
2023-02-24T16:13:23.494Z,49.41
2023-02-24T16:15:52.203Z,49.57
2023-02-24T16:18:23.224Z,49.40
2023-02-24T16:20:56.866Z,49.27
2023-02-24T16:23:26.486Z,49.03
2023-02-24T16:25:57.272Z,48.80
2023-02-24T16:28:26.765Z,48.59
2023-02-24T16:30:55.456Z,48.01
2023-02-24T16:33:24.420Z,47.99
2023-02-24T16:35:55.940Z,47.68
2023-02-24T16:38:28.117Z,47.24
2023-02-24T16:40:56.714Z,46.77
2023-02-24T16:43:26.787Z,46.98
2023-02-24T16:45:55.355Z,46.59
2023-02-24T16:48:26.414Z,46.36
2023-02-24T16:50:54.947Z,46.22
2023-02-24T16:53:24.535Z,46.08
2023-02-24T16:55:53.102Z,46.18
2023-02-24T16:58:23.645Z,45.86
2023-02-24T17:00:55.688Z,45.65
2023-02-24T17:03:47.839Z,45.66
2023-02-24T17:06:16.280Z,45.45
2023-02-24T17:08:46.349Z,45.21
2023-02-24T17:11:20.038Z,45.17
2023-02-24T17:13:48.834Z,45.37
2023-02-24T17:16:17.404Z,45.70
2023-02-24T17:18:46.284Z,45.35
2023-02-24T17:21:15.272Z,45.38
2023-02-24T17:23:44.554Z,45.40
2023-02-24T17:26:15.002Z,45.57
2023-02-24T17:28:43.917Z,45.65
2023-02-24T17:31:12.603Z,45.60
2023-02-24T17:33:42.078Z,45.59
2023-02-24T17:36:10.807Z,45.69
2023-02-24T17:38:39.551Z,45.75
2023-02-24T17:41:08.100Z,46.06
2023-02-24T17:43:36.977Z,46.04
2023-02-24T17:46:07.282Z,46.34
2023-02-24T17:48:36.394Z,46.27
2023-02-24T17:51:05.029Z,46.58
2023-02-24T17:53:34.117Z,46.49
2023-02-24T17:56:06.884Z,46.33
2023-02-24T17:58:35.582Z,46.65
2023-02-24T18:01:05.803Z,46.43
2023-02-24T18:03:35.721Z,46.29
2023-02-24T18:06:10.304Z,46.21
2023-02-24T18:08:39.949Z,46.10
2023-02-24T18:11:10.159Z,45.84
2023-02-24T18:13:39.046Z,45.88
2023-02-24T18:16:14.613Z,45.51
2023-02-24T18:18:43.540Z,45.33
2023-02-24T18:21:12.060Z,45.47
2023-02-24T18:23:41.047Z,45.67
2023-02-24T18:26:10.870Z,45.69
2023-02-24T18:28:39.750Z,45.79
2023-02-24T18:31:20.511Z,45.85
2023-02-24T18:33:49.997Z,45.89
2023-02-24T18:36:18.600Z,45.99
2023-02-24T18:38:47.492Z,46.36
2023-02-24T18:41:21.254Z,46.25
2023-02-24T18:43:51.664Z,46.36
2023-02-24T18:46:21.008Z,46.46
2023-02-24T18:48:50.561Z,46.26
2023-02-24T18:51:22.321Z,46.50
2023-02-24T18:53:52.914Z,46.57
2023-02-24T18:56:26.708Z,46.74
2023-02-24T18:58:57.880Z,46.50
2023-02-24T19:01:29.634Z,46.74
2023-02-24T19:03:58.531Z,46.84
2023-02-24T19:06:28.725Z,46.89
2023-02-24T19:09:12.701Z,46.83
2023-02-24T19:11:41.250Z,46.83
2023-02-24T19:14:12.166Z,47.21
2023-02-24T19:16:40.934Z,47.19
2023-02-24T19:19:13.951Z,47.19
2023-02-24T19:21:45.607Z,47.20
2023-02-24T19:24:14.618Z,47.48
2023-02-24T19:26:44.111Z,47.35
2023-02-24T19:29:14.482Z,47.30
2023-02-24T19:31:43.155Z,47.27
2023-02-24T19:34:13.879Z,47.47
2023-02-24T19:36:42.421Z,47.62
2023-02-24T19:39:14.084Z,47.62
2023-02-24T19:41:42.932Z,47.60
2023-02-24T19:44:11.927Z,47.58
2023-02-24T19:46:40.784Z,47.93
2023-02-24T19:49:09.503Z,47.93
2023-02-24T19:51:37.982Z,48.07
2023-02-24T19:54:06.864Z,48.37
2023-02-24T19:56:36.751Z,47.98
2023-02-24T19:59:06.980Z,48.04
2023-02-24T20:01:35.538Z,48.15
2023-02-24T20:04:04.771Z,48.07
2023-02-24T20:06:41.204Z,48.00
2023-02-24T20:09:21.588Z,47.77
2023-02-24T20:11:50.908Z,47.60
2023-02-24T20:14:20.413Z,47.36
2023-02-24T20:16:51.490Z,47.30
2023-02-24T20:19:20.244Z,46.96
2023-02-24T20:21:48.657Z,47.17
2023-02-24T20:24:17.646Z,47.20
2023-02-24T20:26:47.973Z,47.10
2023-02-24T20:29:17.673Z,47.10
2023-02-24T20:31:46.856Z,47.31
2023-02-24T20:34:17.137Z,47.03
2023-02-24T20:36:45.678Z,47.33
2023-02-24T20:39:14.666Z,47.19
2023-02-24T20:41:43.088Z,47.39
2023-02-24T20:44:12.199Z,47.53
2023-02-24T20:46:41.666Z,47.50
2023-02-24T20:49:12.908Z,47.69
2023-02-24T20:51:41.745Z,47.71
2023-02-24T20:54:12.092Z,47.70
2023-02-24T20:56:42.598Z,47.94
2023-02-24T20:59:18.064Z,47.85
2023-02-24T21:01:48.101Z,47.80
2023-02-24T21:04:19.974Z,48.04
2023-02-24T21:06:48.538Z,47.95
2023-02-24T21:09:17.414Z,47.98
2023-02-24T21:11:45.801Z,48.19
2023-02-24T21:14:16.524Z,48.16
2023-02-24T21:16:46.397Z,48.26
2023-02-24T21:19:15.412Z,48.32
2023-02-24T21:21:43.748Z,48.03
2023-02-24T21:24:12.181Z,48.33
2023-02-24T21:26:40.965Z,48.11
2023-02-24T21:29:09.351Z,48.32
2023-02-24T21:31:38.544Z,48.32
2023-02-24T21:34:07.158Z,48.32
2023-02-24T21:36:35.876Z,48.43
2023-02-24T21:39:05.977Z,48.45
2023-02-24T21:41:36.036Z,48.42
2023-02-24T21:44:05.415Z,48.42
2023-02-24T21:46:34.555Z,48.53
2023-02-24T21:49:03.057Z,48.63
2023-02-24T21:51:31.799Z,48.53
2023-02-24T21:54:00.948Z,48.86
2023-02-24T21:56:30.018Z,48.44
2023-02-24T21:59:01.277Z,48.52
2023-02-24T22:01:35.300Z,48.55
2023-02-24T22:04:07.822Z,48.43
2023-02-24T22:06:38.088Z,48.47
2023-02-24T22:09:08.751Z,48.00
2023-02-24T22:11:39.889Z,48.13
2023-02-24T22:14:09.714Z,48.21
2023-02-24T22:16:38.559Z,48.25
2023-02-24T22:19:07.360Z,48.25
2023-02-24T22:21:36.158Z,47.97
2023-02-24T22:24:05.023Z,48.16
2023-02-24T22:26:33.893Z,48.28
2023-02-24T22:29:02.549Z,48.26
2023-02-24T22:31:32.364Z,48.38
2023-02-24T22:34:01.353Z,48.42
2023-02-24T22:36:33.715Z,48.59
2023-02-24T22:39:02.484Z,48.38
2023-02-24T22:41:33.194Z,48.26
2023-02-24T22:44:03.305Z,48.62
2023-02-24T22:46:37.951Z,48.59
2023-02-24T22:49:06.533Z,48.70
2023-02-24T22:51:35.551Z,48.81
2023-02-24T22:54:05.341Z,48.64
2023-02-24T22:56:34.549Z,48.69
2023-02-24T22:59:02.909Z,48.78
2023-02-24T23:01:35.060Z,48.70
2023-02-24T23:04:05.944Z,48.56
2023-02-24T23:06:35.065Z,48.56
2023-02-24T23:09:03.866Z,48.58
2023-02-24T23:11:41.057Z,48.67
2023-02-24T23:14:16.573Z,48.55
2023-02-24T23:16:47.783Z,48.49
2023-02-24T23:19:18.036Z,48.63
2023-02-24T23:21:50.566Z,48.45
2023-02-24T23:24:19.796Z,48.54
2023-02-24T23:26:57.938Z,48.69
2023-02-24T23:29:26.849Z,48.58
2023-02-24T23:31:55.718Z,48.66
2023-02-24T23:34:24.838Z,48.55
2023-02-24T23:36:53.614Z,48.64
2023-02-24T23:39:24.050Z,48.58
2023-02-24T23:41:57.014Z,48.32
2023-02-24T23:44:26.017Z,48.60
2023-02-24T23:46:55.237Z,48.58
2023-02-24T23:49:23.830Z,48.49
2023-02-24T23:51:52.558Z,48.57
2023-02-24T23:54:20.968Z,48.58
2023-02-24T23:56:49.609Z,48.80
2023-02-24T23:59:18.081Z,48.63
